East Fishkill, New York
Current Conditions -  °F | °C
As of 2:53 AM on Sunday 23 Nov 2014 (Local Time) from KPOU Reporting Station
Few Clouds Few Clouds  
Wind Chill: 39°   Ceiling: Unl
Heat Index: 43°   Visibility: 10mi
Dew Point: 20°   Wind: 6mph
Humidity: 40%   Direction: 220°SW
Pressure: 30.15"   Gusts: NA
Location:  41.562°N, 73.7865°W
Report Text: KPOU 230753Z AUTO 22005KT 10SM FEW100 06/M07 A3015 RMK AO2 SLP208 T00611067 TSNO
Loading
Personal Weather Stations






























Interactive Weather Map New forecast layout! Learn more

10-Day Weather Forecast

Advertisements
Track Severe Weather on mobile